createdAt,value
2019-05-30T00:00:55.843Z,15.80
2019-05-30T00:03:27.884Z,15.54
2019-05-30T00:06:00.528Z,13.92
2019-05-30T00:08:32.648Z,12.74
2019-05-30T00:11:04.867Z,12.01
2019-05-30T00:13:36.889Z,11.47
2019-05-30T00:16:09.461Z,11.03
2019-05-30T00:18:41.579Z,10.66
2019-05-30T00:21:13.610Z,10.32
2019-05-30T00:23:45.514Z,10.03
2019-05-30T00:26:17.535Z,9.72
2019-05-30T00:28:49.588Z,9.46
2019-05-30T00:31:21.601Z,9.25
2019-05-30T00:33:53.643Z,9.01
2019-05-30T00:36:25.986Z,8.78
2019-05-30T00:38:57.972Z,8.60
2019-05-30T00:41:29.924Z,8.41
2019-05-30T00:44:02.158Z,8.22
2019-05-30T00:46:34.360Z,11.84
2019-05-30T00:49:06.687Z,15.82
2019-05-30T00:51:38.681Z,15.60
2019-05-30T00:54:10.661Z,13.89
2019-05-30T00:56:42.457Z,12.68
2019-05-30T00:59:14.355Z,11.86
2019-05-30T01:01:46.135Z,11.28
2019-05-30T01:04:18.365Z,10.83
2019-05-30T01:06:50.154Z,10.44
2019-05-30T01:09:22.061Z,10.10
2019-05-30T01:11:54.051Z,9.77
2019-05-30T01:14:25.961Z,9.47
2019-05-30T01:16:59.047Z,9.21
2019-05-30T01:19:31.050Z,8.94
2019-05-30T01:22:05.400Z,8.70
2019-05-30T01:24:37.434Z,8.47
2019-05-30T01:27:09.370Z,8.26
2019-05-30T01:29:41.349Z,8.05
2019-05-30T01:32:29.098Z,11.57
2019-05-30T01:35:02.074Z,15.89
2019-05-30T01:37:37.296Z,15.40
2019-05-30T01:40:10.614Z,13.69
2019-05-30T01:42:42.554Z,12.44
2019-05-30T01:45:14.949Z,11.60
2019-05-30T01:47:46.730Z,10.99
2019-05-30T01:50:18.808Z,10.52
2019-05-30T01:52:50.769Z,10.07
2019-05-30T01:55:22.824Z,9.70
2019-05-30T01:57:54.834Z,9.36
2019-05-30T02:00:38.957Z,9.08
2019-05-30T02:03:11.057Z,8.77
2019-05-30T02:05:43.039Z,8.50
2019-05-30T02:08:14.980Z,8.23
2019-05-30T02:10:47.036Z,7.96
2019-05-30T02:13:19.003Z,11.30
2019-05-30T02:15:51.095Z,15.36
2019-05-30T02:18:23.065Z,15.12
2019-05-30T02:20:54.969Z,13.38
2019-05-30T02:23:27.076Z,12.12
2019-05-30T02:26:00.104Z,11.31
2019-05-30T02:28:32.251Z,10.69
2019-05-30T02:31:05.338Z,10.21
2019-05-30T02:33:37.737Z,9.79
2019-05-30T02:36:12.577Z,9.42
2019-05-30T02:38:44.874Z,9.08
2019-05-30T02:41:17.107Z,8.74
2019-05-30T02:43:49.211Z,8.46
2019-05-30T02:46:21.100Z,8.16
2019-05-30T02:48:58.992Z,7.91
2019-05-30T02:51:26.578Z,11.33
2019-05-30T02:53:58.530Z,15.40
2019-05-30T02:56:30.769Z,15.13
2019-05-30T02:59:03.870Z,13.36
2019-05-30T03:01:36.470Z,12.09
2019-05-30T03:04:10.237Z,11.26
2019-05-30T03:06:42.428Z,10.66
2019-05-30T03:09:14.410Z,10.18
2019-05-30T03:11:46.890Z,9.80
2019-05-30T03:14:19.949Z,9.41
2019-05-30T03:16:52.268Z,9.08
2019-05-30T03:19:24.231Z,8.77
2019-05-30T03:21:56.270Z,8.51
2019-05-30T03:24:28.195Z,8.25
2019-05-30T03:27:00.226Z,7.96
2019-05-30T03:29:32.213Z,11.40
2019-05-30T03:32:38.987Z,15.50
2019-05-30T03:34:37.848Z,15.19
2019-05-30T03:37:21.456Z,13.52
2019-05-30T03:39:43.483Z,12.28
2019-05-30T03:42:16.107Z,11.48
2019-05-30T03:44:48.216Z,10.89
2019-05-30T03:47:22.086Z,10.41
2019-05-30T03:49:56.232Z,10.03
2019-05-30T03:52:29.076Z,9.72
2019-05-30T03:55:01.282Z,9.39
2019-05-30T03:57:43.164Z,9.14
2019-05-30T04:00:37.367Z,8.87
2019-05-30T04:03:31.858Z,8.56
2019-05-30T04:06:10.143Z,8.35
2019-05-30T04:08:43.849Z,11.91
2019-05-30T04:11:29.633Z,16.01
2019-05-30T04:14:06.805Z,15.56
2019-05-30T04:16:38.596Z,13.85
2019-05-30T04:19:12.356Z,12.71
2019-05-30T04:21:43.996Z,11.93
2019-05-30T04:24:16.498Z,11.41
2019-05-30T04:26:48.507Z,10.99
2019-05-30T04:29:20.556Z,10.65
2019-05-30T04:31:52.426Z,10.35
2019-05-30T04:34:24.258Z,10.05
2019-05-30T04:36:56.132Z,9.83
2019-05-30T04:39:28.692Z,9.60
2019-05-30T04:42:00.576Z,9.41
2019-05-30T04:44:32.494Z,9.22
2019-05-30T04:47:23.024Z,9.09
2019-05-30T04:49:56.012Z,13.26
2019-05-30T04:52:27.978Z,14.58
2019-05-30T04:54:59.891Z,13.34
2019-05-30T04:57:31.865Z,12.37
2019-05-30T05:00:05.504Z,11.74
2019-05-30T05:02:37.872Z,11.31
2019-05-30T05:05:11.360Z,10.99
2019-05-30T05:07:43.390Z,10.74
2019-05-30T05:10:20.425Z,10.53
2019-05-30T05:12:52.845Z,10.35
2019-05-30T05:15:24.855Z,10.23
2019-05-30T05:17:56.789Z,10.10
2019-05-30T05:20:28.841Z,9.97
2019-05-30T05:23:01.048Z,9.87
2019-05-30T05:25:33.086Z,9.79
2019-05-30T05:28:05.071Z,9.72
2019-05-30T05:30:37.124Z,9.66
2019-05-30T05:33:09.006Z,9.62
2019-05-30T05:35:40.963Z,13.01
2019-05-30T05:38:12.949Z,16.97
2019-05-30T05:40:45.082Z,16.78
2019-05-30T05:43:18.593Z,15.32
2019-05-30T05:45:51.777Z,14.27
2019-05-30T05:48:24.724Z,13.63
2019-05-30T05:50:56.861Z,13.19
2019-05-30T05:53:29.087Z,12.90
2019-05-30T05:56:01.340Z,12.62
2019-05-30T05:58:33.396Z,12.40
2019-05-30T06:01:07.515Z,12.22
2019-05-30T06:03:39.955Z,12.05
2019-05-30T06:06:11.940Z,11.89
2019-05-30T06:08:44.791Z,11.77
2019-05-30T06:11:16.735Z,11.64
2019-05-30T06:13:48.976Z,11.54
2019-05-30T06:16:21.998Z,11.46
2019-05-30T06:18:54.011Z,11.40
2019-05-30T06:21:27.483Z,11.31
2019-05-30T06:23:59.462Z,11.28
2019-05-30T06:26:31.515Z,11.23
2019-05-30T06:29:03.761Z,11.20
2019-05-30T06:31:35.904Z,11.17
2019-05-30T06:34:07.907Z,11.13
2019-05-30T06:36:41.185Z,11.13
2019-05-30T06:39:13.133Z,11.14
2019-05-30T06:41:45.103Z,11.19
2019-05-30T06:44:16.882Z,11.19
2019-05-30T06:46:48.650Z,11.23
2019-05-30T06:49:20.678Z,11.26
2019-05-30T06:51:52.731Z,11.27
2019-05-30T06:54:25.906Z,11.31
2019-05-30T06:56:58.718Z,11.34
2019-05-30T06:59:31.727Z,11.38
2019-05-30T07:02:03.884Z,11.43
2019-05-30T07:04:50.870Z,11.46
2019-05-30T07:07:09.547Z,11.51
2019-05-30T07:09:41.576Z,11.53
2019-05-30T07:12:13.496Z,11.57
2019-05-30T07:14:45.497Z,11.61
2019-05-30T07:17:17.711Z,11.64
2019-05-30T07:19:49.721Z,11.70
2019-05-30T07:22:21.710Z,11.75
2019-05-30T07:24:53.599Z,11.78
2019-05-30T07:27:26.096Z,11.84
2019-05-30T07:29:58.175Z,11.91
2019-05-30T07:32:32.160Z,11.98
2019-05-30T07:35:07.688Z,12.06
2019-05-30T07:37:39.905Z,12.12
2019-05-30T07:40:12.603Z,12.19
2019-05-30T07:42:44.581Z,12.29
2019-05-30T07:45:17.505Z,12.42
2019-05-30T07:47:49.577Z,12.44
2019-05-30T07:50:21.951Z,12.62
2019-05-30T07:52:53.850Z,12.64
2019-05-30T07:55:26.850Z,12.71
2019-05-30T07:57:59.038Z,12.77
2019-05-30T08:00:33.486Z,12.80
2019-05-30T08:03:04.757Z,12.85
2019-05-30T08:05:36.717Z,12.93
2019-05-30T08:08:08.699Z,13.00
2019-05-30T08:10:40.594Z,13.08
2019-05-30T08:13:12.578Z,13.14
2019-05-30T08:15:44.467Z,13.17
2019-05-30T08:18:16.307Z,13.21
2019-05-30T08:20:48.239Z,13.28
2019-05-30T08:23:20.171Z,13.36
2019-05-30T08:25:52.185Z,13.41
2019-05-30T08:28:24.082Z,13.46
2019-05-30T08:30:56.972Z,13.49
2019-05-30T08:33:29.548Z,13.52
2019-05-30T08:36:05.481Z,13.59
2019-05-30T08:38:37.340Z,13.65
2019-05-30T08:41:09.497Z,13.70
2019-05-30T08:43:41.478Z,13.75
2019-05-30T08:46:15.808Z,13.80
2019-05-30T08:48:48.148Z,13.87
2019-05-30T08:51:20.024Z,13.92
2019-05-30T08:53:51.935Z,13.98
2019-05-30T08:56:23.737Z,14.03
2019-05-30T08:58:55.651Z,14.06
2019-05-30T09:01:27.632Z,14.14
2019-05-30T09:03:59.544Z,14.20
2019-05-30T09:06:32.503Z,14.24
2019-05-30T09:09:06.377Z,14.24
2019-05-30T09:11:39.290Z,14.28
2019-05-30T09:14:13.102Z,14.31
2019-05-30T09:16:46.499Z,14.38
2019-05-30T09:19:18.847Z,14.35
2019-05-30T09:21:51.985Z,14.40
2019-05-30T09:24:23.982Z,14.42
2019-05-30T09:26:57.084Z,14.41
2019-05-30T09:29:29.080Z,14.45
2019-05-30T09:32:01.014Z,14.48
2019-05-30T09:34:33.067Z,14.57
2019-05-30T09:37:04.998Z,14.64
2019-05-30T09:39:36.917Z,14.69
2019-05-30T09:42:08.845Z,14.72
2019-05-30T09:44:42.189Z,14.76
2019-05-30T09:47:14.219Z,14.75
2019-05-30T09:49:46.569Z,14.75
2019-05-30T09:52:18.595Z,14.81
2019-05-30T09:54:50.587Z,14.86
2019-05-30T09:57:22.451Z,14.89
2019-05-30T09:59:54.364Z,14.93
2019-05-30T10:02:26.539Z,14.98
2019-05-30T10:04:58.504Z,15.02
2019-05-30T10:07:30.552Z,15.06
2019-05-30T10:10:03.975Z,15.12
2019-05-30T10:12:35.983Z,15.17
2019-05-30T10:15:12.026Z,15.27
2019-05-30T10:17:44.669Z,15.30
2019-05-30T10:20:18.794Z,15.36
2019-05-30T10:22:52.432Z,15.47
2019-05-30T10:25:24.855Z,15.47
2019-05-30T10:27:57.787Z,15.50
2019-05-30T10:30:30.553Z,15.57
2019-05-30T10:33:02.378Z,15.64
2019-05-30T10:35:34.420Z,15.65
2019-05-30T10:38:06.708Z,15.65
2019-05-30T10:40:38.658Z,15.71
2019-05-30T10:43:18.908Z,15.75
2019-05-30T10:45:57.529Z,15.80
2019-05-30T10:48:30.357Z,15.84
2019-05-30T10:51:02.744Z,15.92
2019-05-30T10:53:37.402Z,16.01
2019-05-30T10:56:08.538Z,16.05
2019-05-30T10:58:40.612Z,16.11
2019-05-30T11:01:12.581Z,16.18
2019-05-30T11:03:44.592Z,16.26
2019-05-30T11:06:21.118Z,16.29
2019-05-30T11:08:54.879Z,16.39
2019-05-30T11:11:26.835Z,16.47
2019-05-30T11:13:58.785Z,16.53
2019-05-30T11:16:30.790Z,16.57
2019-05-30T11:19:07.309Z,16.63
2019-05-30T11:21:36.370Z,16.70
2019-05-30T11:24:08.412Z,16.78
2019-05-30T11:26:40.393Z,16.86
2019-05-30T11:29:12.360Z,16.94
2019-05-30T11:31:44.350Z,17.03
2019-05-30T11:34:16.283Z,17.13
2019-05-30T11:36:48.970Z,17.18
2019-05-30T11:39:21.025Z,17.27
2019-05-30T11:41:53.283Z,17.32
2019-05-30T11:44:25.316Z,17.43
2019-05-30T11:46:57.768Z,17.52
2019-05-30T11:49:29.769Z,17.61
2019-05-30T11:52:01.610Z,17.61
2019-05-30T11:54:34.346Z,17.59
2019-05-30T11:57:07.385Z,17.64
2019-05-30T11:59:39.268Z,17.72
2019-05-30T12:02:11.284Z,17.83
2019-05-30T12:04:43.407Z,17.90
2019-05-30T12:07:15.501Z,17.94
2019-05-30T12:09:48.470Z,17.96
2019-05-30T12:12:20.640Z,18.03
2019-05-30T12:14:53.314Z,18.12
2019-05-30T12:17:25.453Z,18.20
2019-05-30T12:19:59.594Z,18.30
2019-05-30T12:22:31.584Z,18.43
2019-05-30T12:25:07.330Z,18.61
2019-05-30T12:27:39.685Z,18.76
2019-05-30T12:30:12.219Z,18.92
2019-05-30T12:32:45.330Z,19.09
2019-05-30T12:35:21.307Z,19.22
2019-05-30T12:37:58.500Z,19.36
2019-05-30T12:40:27.535Z,19.53
2019-05-30T12:43:01.040Z,19.68
2019-05-30T12:45:33.264Z,19.82
2019-05-30T12:48:05.242Z,19.96
2019-05-30T12:50:37.115Z,20.09
2019-05-30T12:53:09.171Z,20.19
2019-05-30T12:55:41.061Z,20.27
2019-05-30T12:58:13.178Z,20.36
2019-05-30T13:00:45.504Z,20.45
2019-05-30T13:03:17.489Z,20.55
2019-05-30T13:05:49.431Z,20.64
2019-05-30T13:08:22.203Z,20.68
2019-05-30T13:10:55.523Z,20.76
2019-05-30T13:13:27.682Z,20.79
2019-05-30T13:16:01.064Z,20.80
2019-05-30T13:18:33.425Z,20.87
2019-05-30T13:21:06.328Z,20.93
2019-05-30T13:23:38.924Z,20.99
2019-05-30T13:26:10.850Z,21.03
2019-05-30T13:28:42.979Z,21.04
2019-05-30T13:31:15.869Z,21.11
2019-05-30T13:33:47.852Z,21.20
2019-05-30T13:36:19.661Z,21.27
2019-05-30T13:38:51.504Z,21.34
2019-05-30T13:41:23.531Z,21.34
2019-05-30T13:43:55.434Z,21.40
2019-05-30T13:46:27.340Z,21.45
2019-05-30T13:49:00.795Z,21.50
2019-05-30T13:51:32.855Z,21.61
2019-05-30T13:54:05.282Z,21.66
2019-05-30T13:56:37.273Z,21.75
2019-05-30T13:59:10.111Z,21.85
2019-05-30T14:01:42.197Z,21.93
2019-05-30T14:04:14.278Z,22.03
2019-05-30T14:06:46.226Z,22.13
2019-05-30T14:09:19.047Z,22.22
2019-05-30T14:11:50.982Z,22.27
2019-05-30T14:14:24.087Z,22.33
2019-05-30T14:16:56.222Z,22.30
2019-05-30T14:19:28.068Z,22.35
2019-05-30T14:22:01.057Z,22.42
2019-05-30T14:24:35.555Z,22.46
2019-05-30T14:27:07.650Z,22.53
2019-05-30T14:29:40.609Z,22.56
2019-05-30T14:32:12.632Z,22.62
2019-05-30T14:34:44.546Z,22.60
2019-05-30T14:37:16.333Z,22.63
2019-05-30T14:39:48.584Z,22.64
2019-05-30T14:42:20.537Z,22.66
2019-05-30T14:44:52.514Z,22.74
2019-05-30T14:47:24.691Z,22.78
2019-05-30T14:49:56.686Z,22.84
2019-05-30T14:52:28.949Z,22.88
2019-05-30T14:55:02.026Z,22.94
2019-05-30T14:57:34.128Z,22.97
2019-05-30T15:00:13.596Z,22.99
2019-05-30T15:02:46.153Z,23.02
2019-05-30T15:05:18.554Z,23.02
2019-05-30T15:07:50.589Z,23.05
2019-05-30T15:10:22.513Z,23.07
2019-05-30T15:12:55.371Z,23.13
2019-05-30T15:15:27.346Z,23.19
2019-05-30T15:17:59.169Z,23.25
2019-05-30T15:20:31.215Z,23.28
2019-05-30T15:23:03.165Z,23.35
2019-05-30T15:25:35.091Z,23.44
2019-05-30T15:28:07.967Z,23.50
2019-05-30T15:30:40.024Z,23.62
2019-05-30T15:33:12.658Z,23.72
2019-05-30T15:35:45.684Z,23.80
2019-05-30T15:38:17.578Z,23.95
2019-05-30T15:40:49.499Z,24.03
2019-05-30T15:43:21.455Z,24.13
2019-05-30T15:45:53.436Z,24.21
2019-05-30T15:48:25.312Z,24.31
2019-05-30T15:50:57.301Z,24.39
2019-05-30T15:53:29.406Z,24.33
2019-05-30T15:56:01.729Z,24.39
2019-05-30T15:58:33.761Z,24.43
2019-05-30T16:01:09.810Z,24.43
2019-05-30T16:03:43.689Z,24.51
2019-05-30T16:06:16.549Z,24.62
2019-05-30T16:08:48.518Z,24.74
2019-05-30T16:11:21.261Z,24.95
2019-05-30T16:13:53.304Z,25.39
2019-05-30T16:16:38.914Z,26.07
2019-05-30T16:19:14.789Z,26.58
2019-05-30T16:21:33.615Z,26.83
2019-05-30T16:24:07.050Z,27.00
2019-05-30T16:26:39.373Z,27.17
2019-05-30T16:29:11.342Z,27.44
2019-05-30T16:31:43.185Z,27.74
2019-05-30T16:34:16.104Z,27.95
2019-05-30T16:36:48.773Z,28.08
2019-05-30T16:39:20.647Z,28.15
2019-05-30T16:41:52.801Z,28.23
2019-05-30T16:44:24.767Z,28.36
2019-05-30T16:46:56.752Z,28.50
2019-05-30T16:49:29.051Z,28.50
2019-05-30T16:52:00.978Z,28.57
2019-05-30T16:54:33.021Z,28.91
2019-05-30T16:57:05.025Z,29.41
2019-05-30T16:59:36.917Z,29.83
2019-05-30T17:02:09.389Z,30.06
2019-05-30T17:04:41.365Z,30.16
2019-05-30T17:07:13.452Z,30.15
2019-05-30T17:09:45.403Z,30.09
2019-05-30T17:12:17.504Z,30.03
2019-05-30T17:14:49.564Z,29.97
2019-05-30T17:17:24.195Z,29.91
2019-05-30T17:19:56.817Z,29.97
2019-05-30T17:22:30.930Z,30.30
2019-05-30T17:25:03.831Z,30.60
2019-05-30T17:27:46.710Z,30.87
2019-05-30T17:30:21.616Z,31.09
2019-05-30T17:32:55.143Z,31.30
2019-05-30T17:35:46.281Z,31.49
2019-05-30T17:38:26.533Z,31.70
2019-05-30T17:40:58.535Z,31.70
2019-05-30T17:43:30.455Z,31.48
2019-05-30T17:46:02.439Z,31.36
2019-05-30T17:48:34.573Z,30.91
2019-05-30T17:51:06.610Z,30.48
2019-05-30T17:53:38.738Z,30.00
2019-05-30T17:56:10.796Z,29.68
2019-05-30T17:58:42.992Z,29.35
2019-05-30T18:01:14.736Z,29.17
2019-05-30T18:03:46.717Z,28.77
2019-05-30T18:06:20.377Z,28.29
2019-05-30T18:08:52.466Z,27.81
2019-05-30T18:11:24.947Z,27.37
2019-05-30T18:13:57.052Z,26.95
2019-05-30T18:16:29.290Z,26.49
2019-05-30T18:19:01.296Z,26.04
2019-05-30T18:21:33.251Z,25.66
2019-05-30T18:24:05.370Z,25.19
2019-05-30T18:26:37.317Z,24.81
2019-05-30T18:29:09.381Z,24.40
2019-05-30T18:31:41.271Z,24.04
2019-05-30T18:34:13.049Z,23.66
2019-05-30T18:36:46.325Z,23.28
2019-05-30T18:39:18.687Z,22.93
2019-05-30T18:41:50.654Z,22.57
2019-05-30T18:44:22.803Z,22.22
2019-05-30T18:46:54.673Z,21.86
2019-05-30T18:49:27.140Z,21.50
2019-05-30T18:51:59.234Z,21.18
2019-05-30T18:54:31.737Z,20.82
2019-05-30T18:57:04.913Z,20.49
2019-05-30T18:59:37.394Z,20.17
2019-05-30T19:02:10.555Z,19.82
2019-05-30T19:04:42.539Z,19.54
2019-05-30T19:07:14.505Z,19.23
2019-05-30T19:09:46.479Z,18.95
2019-05-30T19:12:19.436Z,18.68
2019-05-30T19:14:51.344Z,18.40
2019-05-30T19:17:23.239Z,18.12
2019-05-30T19:19:55.240Z,17.82
2019-05-30T19:22:28.365Z,17.58
2019-05-30T19:25:00.683Z,17.35
2019-05-30T19:27:36.401Z,17.14
2019-05-30T19:30:11.151Z,16.90
2019-05-30T19:32:42.962Z,16.69
2019-05-30T19:35:15.926Z,16.49
2019-05-30T19:38:05.044Z,16.53
2019-05-30T19:40:39.427Z,16.33
2019-05-30T19:43:12.874Z,16.11
2019-05-30T19:45:45.301Z,15.89
2019-05-30T19:48:17.302Z,15.73
2019-05-30T19:50:49.220Z,15.56
2019-05-30T19:53:21.106Z,15.40
2019-05-30T19:55:53.068Z,15.24
2019-05-30T19:58:24.966Z,15.07
2019-05-30T20:00:58.766Z,14.93
2019-05-30T20:03:38.519Z,14.78
2019-05-30T20:06:04.257Z,14.64
2019-05-30T20:08:51.356Z,14.54
2019-05-30T20:11:09.893Z,14.40
2019-05-30T20:13:41.946Z,14.27
2019-05-30T20:16:13.986Z,14.14
2019-05-30T20:18:45.892Z,14.01
2019-05-30T20:21:18.588Z,13.93
2019-05-30T20:23:56.622Z,13.80
2019-05-30T20:26:24.167Z,13.69
2019-05-30T20:28:56.051Z,13.59
2019-05-30T20:31:28.149Z,13.52
2019-05-30T20:34:00.190Z,13.41
2019-05-30T20:36:32.177Z,13.29
2019-05-30T20:39:04.887Z,13.17
2019-05-30T20:41:36.962Z,13.05
2019-05-30T20:44:08.856Z,16.25
2019-05-30T20:46:41.172Z,20.08
2019-05-30T20:49:13.149Z,19.84
2019-05-30T20:51:45.118Z,18.27
2019-05-30T20:54:17.015Z,17.11
2019-05-30T20:56:51.062Z,16.40
2019-05-30T20:59:22.597Z,15.88
2019-05-30T21:01:54.662Z,15.47
2019-05-30T21:04:26.814Z,15.10
2019-05-30T21:06:59.313Z,14.81
2019-05-30T21:09:31.885Z,14.48
2019-05-30T21:12:05.347Z,14.18
2019-05-30T21:14:37.421Z,13.92
2019-05-30T21:17:10.220Z,13.65
2019-05-30T21:19:42.174Z,13.42
2019-05-30T21:22:14.168Z,13.19
2019-05-30T21:24:46.944Z,12.98
2019-05-30T21:27:19.021Z,12.80
2019-05-30T21:29:51.049Z,12.60
2019-05-30T21:32:23.023Z,12.46
2019-05-30T21:34:54.978Z,15.96
2019-05-30T21:37:26.952Z,19.73
2019-05-30T21:39:58.981Z,19.32
2019-05-30T21:42:31.055Z,17.61
2019-05-30T21:45:02.866Z,16.50
2019-05-30T21:47:34.833Z,15.77
2019-05-30T21:50:07.903Z,15.24
2019-05-30T21:52:41.326Z,14.79
2019-05-30T21:55:13.698Z,14.41
2019-05-30T21:57:46.025Z,14.07
2019-05-30T22:01:05.805Z,13.76
2019-05-30T22:03:37.794Z,13.41
2019-05-30T22:06:09.591Z,13.17
2019-05-30T22:08:43.003Z,12.87
2019-05-30T22:11:15.143Z,12.66
2019-05-30T22:13:47.690Z,12.49
2019-05-30T22:16:19.622Z,12.26
2019-05-30T22:18:52.206Z,15.58
2019-05-30T22:21:24.405Z,19.40
2019-05-30T22:23:56.396Z,19.05
2019-05-30T22:26:28.495Z,17.39
2019-05-30T22:29:00.472Z,16.25
2019-05-30T22:31:32.490Z,15.49
2019-05-30T22:34:04.455Z,14.89
2019-05-30T22:36:36.335Z,14.47
2019-05-30T22:39:09.031Z,14.07
2019-05-30T22:41:41.042Z,13.72
2019-05-30T22:44:13.010Z,13.41
2019-05-30T22:46:46.115Z,13.13
2019-05-30T22:49:18.103Z,12.84
2019-05-30T22:51:51.109Z,12.59
2019-05-30T22:54:23.149Z,12.35
2019-05-30T22:56:55.755Z,12.16
2019-05-30T22:59:27.775Z,15.53
2019-05-30T23:01:59.735Z,19.22
2019-05-30T23:04:31.837Z,18.89
2019-05-30T23:07:04.035Z,17.21
2019-05-30T23:09:36.142Z,16.08
2019-05-30T23:12:08.047Z,15.27
2019-05-30T23:14:40.083Z,14.74
2019-05-30T23:17:11.978Z,14.25
2019-05-30T23:19:44.048Z,13.89
2019-05-30T23:22:16.042Z,13.52
2019-05-30T23:24:49.209Z,13.22
2019-05-30T23:27:21.106Z,12.91
2019-05-30T23:29:53.921Z,12.67
2019-05-30T23:32:25.764Z,12.42
2019-05-30T23:34:58.666Z,12.16
2019-05-30T23:37:30.522Z,15.40
2019-05-30T23:40:02.420Z,16.76
2019-05-30T23:42:34.364Z,15.60
2019-05-30T23:45:10.227Z,14.62
2019-05-30T23:47:42.039Z,13.93
2019-05-30T23:50:13.937Z,13.42
2019-05-30T23:52:45.821Z,13.05
2019-05-30T23:55:17.719Z,12.74
2019-05-30T23:57:50.357Z,12.47
